createdAt,value
2022-12-11T00:01:20.984Z,-4.20
2022-12-11T00:03:49.236Z,-4.10
2022-12-11T00:06:18.787Z,-4.10
2022-12-11T00:08:50.852Z,-4.10
2022-12-11T00:11:18.785Z,-4.00
2022-12-11T00:13:47.563Z,-4.00
2022-12-11T00:16:20.387Z,-4.00
2022-12-11T00:18:51.167Z,-3.90
2022-12-11T00:21:21.805Z,-4.00
2022-12-11T00:23:51.552Z,-3.90
2022-12-11T00:26:20.007Z,-3.90
2022-12-11T00:28:47.746Z,-4.00
2022-12-11T00:31:18.544Z,-4.00
2022-12-11T00:33:49.471Z,-4.00
2022-12-11T00:36:24.299Z,-4.10
2022-12-11T00:39:00.223Z,-4.10
2022-12-11T00:41:27.710Z,-4.10
2022-12-11T00:44:02.694Z,-4.10
2022-12-11T00:46:30.250Z,-4.10
2022-12-11T00:48:59.147Z,-4.10
2022-12-11T00:51:59.677Z,-4.10
2022-12-11T00:54:18.755Z,-4.10
2022-12-11T00:56:46.264Z,-4.20
2022-12-11T00:59:16.329Z,-4.20
2022-12-11T01:01:43.568Z,-4.10
2022-12-11T01:04:13.218Z,-4.30
2022-12-11T01:06:41.332Z,-4.20
2022-12-11T01:09:32.219Z,-4.20
2022-12-11T01:12:02.300Z,-4.20
2022-12-11T01:14:29.745Z,-4.30
2022-12-11T01:16:57.889Z,-4.20
2022-12-11T01:19:28.677Z,-4.30
2022-12-11T01:21:59.812Z,-4.40
2022-12-11T01:24:27.126Z,-4.40
2022-12-11T01:26:55.033Z,-4.40
2022-12-11T01:29:22.826Z,-4.20
2022-12-11T01:31:49.910Z,-4.20
2022-12-11T01:34:18.395Z,-4.40
2022-12-11T01:36:45.819Z,-4.20
2022-12-11T01:39:22.849Z,-4.30
2022-12-11T01:41:50.578Z,-4.20
2022-12-11T01:44:23.739Z,-4.00
2022-12-11T01:46:51.535Z,-4.30
2022-12-11T01:49:20.669Z,-4.30
2022-12-11T01:51:56.401Z,-4.40
2022-12-11T01:54:30.941Z,-4.30
2022-12-11T01:57:07.272Z,-4.40
2022-12-11T01:59:40.736Z,-4.30
2022-12-11T02:02:25.891Z,-4.30
2022-12-11T02:05:02.115Z,-4.30
2022-12-11T02:07:39.985Z,-4.40
2022-12-11T02:10:08.513Z,-4.30
2022-12-11T02:12:59.407Z,-4.30
2022-12-11T02:15:27.211Z,-4.40
2022-12-11T02:18:00.356Z,-4.30
2022-12-11T02:21:03.373Z,-4.40
2022-12-11T02:24:01.653Z,-4.40
2022-12-11T02:26:47.210Z,-4.30
2022-12-11T02:29:31.023Z,-4.50
2022-12-11T02:32:46.188Z,-4.40
2022-12-11T02:35:26.544Z,-4.60
2022-12-11T02:38:06.043Z,-4.60
2022-12-11T02:40:40.923Z,-4.60
2022-12-11T02:43:13.856Z,-4.70
2022-12-11T02:45:45.149Z,-4.70
2022-12-11T02:48:20.764Z,-4.70
2022-12-11T02:50:50.867Z,-4.80
2022-12-11T02:53:22.612Z,-4.80
2022-12-11T02:55:57.669Z,-4.80
2022-12-11T02:58:29.725Z,-4.90
2022-12-11T03:00:57.140Z,-4.80
2022-12-11T03:03:30.976Z,-5.00
2022-12-11T03:06:00.515Z,-4.90
2022-12-11T03:08:30.372Z,-4.90
2022-12-11T03:10:59.593Z,-5.00
2022-12-11T03:13:36.435Z,-5.00
2022-12-11T03:16:25.839Z,-4.90
2022-12-11T03:19:24.708Z,-5.00
2022-12-11T03:22:13.650Z,-5.00
2022-12-11T03:24:48.634Z,-5.00
2022-12-11T03:27:57.483Z,-5.00
2022-12-11T03:30:29.140Z,-5.10
2022-12-11T03:33:03.429Z,-5.10
2022-12-11T03:35:39.184Z,-5.10
2022-12-11T03:38:18.259Z,-5.10
2022-12-11T03:40:50.936Z,-5.10
2022-12-11T03:43:29.366Z,-5.10
2022-12-11T03:46:08.709Z,-5.00
2022-12-11T03:48:48.687Z,-5.10
2022-12-11T03:51:27.122Z,-5.00
2022-12-11T03:53:56.231Z,-5.10
2022-12-11T03:56:27.273Z,-5.00
2022-12-11T03:58:58.134Z,-5.00
2022-12-11T04:01:26.597Z,-5.00
2022-12-11T04:03:53.902Z,-5.00
2022-12-11T04:06:22.375Z,-5.00
2022-12-11T04:08:55.603Z,-5.00
2022-12-11T04:11:34.831Z,-5.10
2022-12-11T04:14:48.919Z,-5.10
2022-12-11T04:17:36.586Z,-5.10
2022-12-11T04:20:25.813Z,-5.20
2022-12-11T04:23:17.823Z,-5.10
2022-12-11T04:25:49.380Z,-5.20
2022-12-11T04:28:20.183Z,-5.30
2022-12-11T04:30:50.553Z,-5.30
2022-12-11T04:33:18.071Z,-5.20
2022-12-11T04:35:45.201Z,-5.20
2022-12-11T04:38:12.194Z,-5.30
2022-12-11T04:40:42.095Z,-5.20
2022-12-11T04:43:12.099Z,-5.20
2022-12-11T04:45:41.593Z,-5.30
2022-12-11T04:48:21.333Z,-5.30
2022-12-11T04:50:50.248Z,-5.20
2022-12-11T04:53:20.460Z,-5.10
2022-12-11T04:55:47.591Z,-5.20
2022-12-11T04:58:23.890Z,-5.20
2022-12-11T05:00:51.138Z,-5.10
2022-12-11T05:03:21.360Z,-5.10
2022-12-11T05:06:00.779Z,-5.10
2022-12-11T05:08:28.218Z,-5.10
2022-12-11T05:11:04.839Z,-5.00
2022-12-11T05:13:44.579Z,-5.20
2022-12-11T05:16:20.113Z,-5.10
2022-12-11T05:18:50.140Z,-5.10
2022-12-11T05:21:27.095Z,-5.20
2022-12-11T05:23:57.705Z,-5.20
2022-12-11T05:26:35.421Z,-5.20
2022-12-11T05:29:07.624Z,-5.20
2022-12-11T05:31:35.066Z,-5.30
2022-12-11T05:34:03.548Z,-5.20
2022-12-11T05:36:34.757Z,-5.20
2022-12-11T05:39:03.806Z,-5.20
2022-12-11T05:41:33.109Z,-5.20
2022-12-11T05:44:03.721Z,-5.20
2022-12-11T05:46:31.704Z,-5.30
2022-12-11T05:49:01.820Z,-5.20
2022-12-11T05:51:45.861Z,-5.20
2022-12-11T05:54:15.954Z,-5.10
2022-12-11T05:56:43.449Z,-5.20
2022-12-11T05:59:14.850Z,-5.10
2022-12-11T06:01:50.183Z,-5.20
2022-12-11T06:04:29.527Z,-5.10
2022-12-11T06:06:58.908Z,-5.30
2022-12-11T06:09:29.055Z,-5.20
2022-12-11T06:11:58.587Z,-5.20
2022-12-11T06:14:37.799Z,-5.20
2022-12-11T06:17:05.606Z,-5.20
2022-12-11T06:19:38.990Z,-5.10
2022-12-11T06:22:06.581Z,-5.20
2022-12-11T06:24:34.442Z,-5.20
2022-12-11T06:27:01.777Z,-5.10
2022-12-11T06:29:30.534Z,-5.10
2022-12-11T06:31:57.898Z,-5.20
2022-12-11T06:34:34.624Z,-5.30
2022-12-11T06:37:04.495Z,-5.30
2022-12-11T06:39:33.523Z,-5.30
2022-12-11T06:42:02.545Z,-5.40
2022-12-11T06:44:29.935Z,-5.40
2022-12-11T06:46:57.267Z,-5.30
2022-12-11T06:49:24.704Z,-5.20
2022-12-11T06:51:55.550Z,-5.20
2022-12-11T06:54:27.626Z,-5.10
2022-12-11T06:56:54.781Z,-5.00
2022-12-11T06:59:28.072Z,-5.10
2022-12-11T07:01:55.381Z,-5.10
2022-12-11T07:04:28.400Z,-5.10
2022-12-11T07:06:59.015Z,-5.10
2022-12-11T07:09:31.576Z,-5.20
2022-12-11T07:11:59.107Z,-5.20
2022-12-11T07:14:29.289Z,-5.20
2022-12-11T07:16:59.173Z,-5.30
2022-12-11T07:19:34.366Z,-5.30
2022-12-11T07:22:02.027Z,-5.30
2022-12-11T07:24:29.120Z,-5.30
2022-12-11T07:26:56.421Z,-5.40
2022-12-11T07:29:24.106Z,-5.40
2022-12-11T07:31:51.607Z,-5.50
2022-12-11T07:34:22.066Z,-5.50
2022-12-11T07:36:49.448Z,-5.60
2022-12-11T07:39:19.442Z,-5.60
2022-12-11T07:41:47.214Z,-5.70
2022-12-11T07:44:14.416Z,-5.60
2022-12-11T07:46:44.122Z,-5.70
2022-12-11T07:49:13.947Z,-5.70
2022-12-11T07:51:44.037Z,-5.60
2022-12-11T07:54:17.368Z,-5.70
2022-12-11T07:56:51.142Z,-5.60
2022-12-11T07:59:21.413Z,-5.70
2022-12-11T08:01:48.966Z,-5.50
2022-12-11T08:04:16.755Z,-5.70
2022-12-11T08:06:51.200Z,-5.60
2022-12-11T08:09:23.888Z,-5.70
2022-12-11T08:11:55.212Z,-5.50
2022-12-11T08:14:29.424Z,-5.50
2022-12-11T08:17:02.387Z,-5.50
2022-12-11T08:19:35.097Z,-5.50
2022-12-11T08:22:03.117Z,-5.60
2022-12-11T08:24:35.164Z,-5.60
2022-12-11T08:27:05.898Z,-5.60
2022-12-11T08:29:33.212Z,-5.50
2022-12-11T08:32:07.585Z,-5.50
2022-12-11T08:34:43.905Z,-5.40
2022-12-11T08:37:11.455Z,-5.30
2022-12-11T08:39:42.897Z,-5.30
2022-12-11T08:42:10.423Z,-5.20
2022-12-11T08:44:40.145Z,-5.20
2022-12-11T08:47:16.213Z,-5.20
2022-12-11T08:49:47.975Z,-5.20
2022-12-11T08:52:18.004Z,-5.10
2022-12-11T08:54:45.237Z,-5.00
2022-12-11T08:57:15.569Z,-5.00
2022-12-11T08:59:43.711Z,-5.00
2022-12-11T09:02:14.146Z,-4.90
2022-12-11T09:04:45.660Z,-4.90
2022-12-11T09:07:12.974Z,-4.90
2022-12-11T09:09:53.518Z,-4.80
2022-12-11T09:12:23.906Z,-4.80
2022-12-11T09:14:54.010Z,-4.80
2022-12-11T09:17:24.378Z,-4.80
2022-12-11T09:19:51.452Z,-4.80
2022-12-11T09:22:21.578Z,-4.60
2022-12-11T09:24:48.632Z,-4.70
2022-12-11T09:27:34.107Z,-4.70
2022-12-11T09:30:04.743Z,-4.60
2022-12-11T09:32:34.198Z,-4.60
2022-12-11T09:35:06.086Z,-4.60
2022-12-11T09:37:34.313Z,-4.60
2022-12-11T09:40:07.266Z,-4.40
2022-12-11T09:42:55.754Z,-4.60
2022-12-11T09:45:23.370Z,-4.60
2022-12-11T09:47:57.823Z,-4.50
2022-12-11T09:50:34.524Z,-4.40
2022-12-11T09:53:20.101Z,-4.50
2022-12-11T09:56:07.786Z,-4.50
2022-12-11T09:58:50.015Z,-4.40
2022-12-11T10:01:37.639Z,-4.20
2022-12-11T10:04:42.452Z,-4.30
2022-12-11T10:07:17.835Z,-4.30
2022-12-11T10:10:16.624Z,-4.20
2022-12-11T10:13:13.517Z,-4.10
2022-12-11T10:16:24.671Z,-4.20
2022-12-11T10:18:52.709Z,-4.20
2022-12-11T10:21:20.881Z,-4.20
2022-12-11T10:23:59.689Z,-4.20
2022-12-11T10:26:29.501Z,-4.20
2022-12-11T10:29:05.150Z,-4.20
2022-12-11T10:31:45.148Z,-4.30
2022-12-11T10:34:36.288Z,-4.30
2022-12-11T10:39:57.113Z,-4.30
2022-12-11T10:42:24.864Z,-4.30
2022-12-11T10:45:18.731Z,-4.30
2022-12-11T10:47:46.062Z,-4.30
2022-12-11T10:50:28.149Z,-4.20
2022-12-11T10:52:56.589Z,-4.20
2022-12-11T10:56:07.714Z,-4.20
2022-12-11T10:58:41.305Z,-4.20
2022-12-11T11:01:35.895Z,-4.10
2022-12-11T11:04:17.751Z,-4.10
2022-12-11T11:06:45.248Z,-4.10
2022-12-11T11:09:34.865Z,-4.20
2022-12-11T11:12:07.910Z,-4.10
2022-12-11T11:14:35.754Z,-4.10
2022-12-11T11:17:02.852Z,-4.10
2022-12-11T11:19:38.803Z,-4.20
2022-12-11T11:22:18.342Z,-4.20
2022-12-11T11:24:58.629Z,-4.20
2022-12-11T11:27:28.927Z,-4.10
2022-12-11T11:30:20.631Z,-4.20
2022-12-11T11:32:50.675Z,-4.20
2022-12-11T11:35:29.651Z,-4.30
2022-12-11T11:38:18.664Z,-4.30
2022-12-11T11:41:08.834Z,-4.30
2022-12-11T11:43:46.646Z,-4.20
2022-12-11T11:46:33.722Z,-4.20
2022-12-11T11:49:09.744Z,-4.20
2022-12-11T11:52:12.432Z,-4.20
2022-12-11T11:55:06.676Z,-4.20
2022-12-11T11:57:55.436Z,-4.10
2022-12-11T12:00:30.353Z,-4.10
2022-12-11T12:03:12.751Z,-4.10
2022-12-11T12:05:59.114Z,-4.30
2022-12-11T12:08:57.778Z,-4.20
2022-12-11T12:11:41.401Z,-4.20
2022-12-11T12:14:51.951Z,-4.20
2022-12-11T12:17:51.902Z,-4.20
2022-12-11T12:20:53.989Z,-4.20
2022-12-11T12:23:33.340Z,-4.00
2022-12-11T12:26:07.297Z,-4.10
2022-12-11T12:28:54.401Z,-4.10
2022-12-11T12:31:45.694Z,-4.00
2022-12-11T12:34:32.137Z,-4.20
2022-12-11T12:37:33.115Z,-4.10
2022-12-11T12:40:26.547Z,-4.10
2022-12-11T12:43:20.687Z,-4.10
2022-12-11T12:46:01.722Z,-4.20
2022-12-11T12:48:56.829Z,-4.20
2022-12-11T12:51:27.586Z,-4.10
2022-12-11T12:54:07.767Z,-4.00
2022-12-11T12:56:47.828Z,-4.10
2022-12-11T12:59:29.237Z,-4.10
2022-12-11T13:02:02.719Z,-4.00
2022-12-11T13:05:01.738Z,-4.00
2022-12-11T13:07:53.878Z,-4.10
2022-12-11T13:10:36.756Z,-4.10
2022-12-11T13:13:09.197Z,-4.10
2022-12-11T13:18:38.159Z,-4.00
2022-12-11T13:21:28.393Z,-4.20
2022-12-11T13:23:58.702Z,-4.00
2022-12-11T13:26:31.236Z,-4.00
2022-12-11T13:28:59.325Z,-4.10
2022-12-11T13:31:43.020Z,-4.10
2022-12-11T13:34:23.943Z,-4.10
2022-12-11T13:36:55.221Z,-4.20
2022-12-11T13:39:27.699Z,-4.20
2022-12-11T13:42:19.964Z,-4.20
2022-12-11T13:44:49.428Z,-4.20
2022-12-11T13:47:32.505Z,-4.30
2022-12-11T13:50:35.157Z,-4.30
2022-12-11T13:53:13.753Z,-4.30
2022-12-11T13:55:47.765Z,-4.30
2022-12-11T13:58:21.013Z,-4.20
2022-12-11T14:01:03.089Z,-4.30
2022-12-11T14:03:33.950Z,-4.30
2022-12-11T14:06:03.681Z,-4.30
2022-12-11T14:08:37.693Z,-4.10
2022-12-11T14:11:07.515Z,-4.10
2022-12-11T14:13:45.207Z,-4.20
2022-12-11T14:16:23.649Z,-4.10
2022-12-11T14:18:52.699Z,-4.20
2022-12-11T14:21:26.679Z,-4.10
2022-12-11T14:24:04.577Z,-4.20
2022-12-11T14:26:39.149Z,-4.20
2022-12-11T14:29:29.784Z,-4.10
2022-12-11T14:32:03.368Z,-4.30
2022-12-11T14:34:39.655Z,-4.30
2022-12-11T14:37:08.077Z,-4.30
2022-12-11T14:39:46.471Z,-4.10
2022-12-11T14:42:23.267Z,-4.10
2022-12-11T14:44:58.196Z,-4.20
2022-12-11T14:47:40.833Z,-4.30
2022-12-11T14:50:20.159Z,-4.20
2022-12-11T14:52:53.382Z,-4.30
2022-12-11T14:55:25.290Z,-4.30
2022-12-11T14:58:00.095Z,-4.20
2022-12-11T15:00:36.209Z,-4.20
2022-12-11T15:03:15.001Z,-4.10
2022-12-11T15:05:56.477Z,-4.20
2022-12-11T15:08:38.084Z,-4.10
2022-12-11T15:11:14.570Z,-3.90
2022-12-11T15:14:00.014Z,-4.10
2022-12-11T15:16:34.993Z,-4.00
2022-12-11T15:19:03.754Z,-4.00
2022-12-11T15:21:39.240Z,-4.00
2022-12-11T15:24:21.825Z,-4.00
2022-12-11T15:26:52.022Z,-3.90
2022-12-11T15:29:39.549Z,-3.90
2022-12-11T15:32:09.986Z,-4.00
2022-12-11T15:34:57.793Z,-3.90
2022-12-11T15:37:26.790Z,-3.80
2022-12-11T15:40:02.643Z,-3.90
2022-12-11T15:42:47.928Z,-4.00
2022-12-11T15:45:31.686Z,-3.90
2022-12-11T15:47:59.761Z,-4.00
2022-12-11T15:50:29.537Z,-4.00
2022-12-11T15:52:59.209Z,-3.90
2022-12-11T15:55:36.225Z,-3.90
2022-12-11T15:58:07.194Z,-4.00
2022-12-11T16:00:36.783Z,-3.90
2022-12-11T16:03:11.351Z,-3.80
2022-12-11T16:05:49.358Z,-3.90
2022-12-11T16:08:22.719Z,-3.80
2022-12-11T16:10:55.496Z,-3.90
2022-12-11T16:13:32.093Z,-3.80
2022-12-11T16:16:02.070Z,-3.80
2022-12-11T16:18:29.412Z,-3.90
2022-12-11T16:20:56.953Z,-3.90
2022-12-11T16:23:26.879Z,-3.80
2022-12-11T16:25:54.294Z,-3.60
2022-12-11T16:28:22.041Z,-3.80
2022-12-11T16:30:50.014Z,-3.70
2022-12-11T16:33:20.719Z,-3.80
2022-12-11T16:35:55.264Z,-3.80
2022-12-11T16:38:28.570Z,-3.80
2022-12-11T16:41:07.849Z,-3.80
2022-12-11T16:43:42.786Z,-3.80
2022-12-11T16:46:24.110Z,-3.80
2022-12-11T16:49:00.766Z,-3.80
2022-12-11T16:51:28.270Z,-3.90
2022-12-11T16:53:59.670Z,-4.00
2022-12-11T16:56:28.039Z,-4.00
2022-12-11T16:58:58.501Z,-4.10
2022-12-11T17:01:33.986Z,-4.10
2022-12-11T17:04:02.450Z,-4.10
2022-12-11T17:06:29.575Z,-4.10
2022-12-11T17:09:11.070Z,-4.20
2022-12-11T17:11:45.311Z,-4.20
2022-12-11T17:14:17.465Z,-4.20
2022-12-11T17:16:45.299Z,-4.30
2022-12-11T17:19:13.209Z,-4.20
2022-12-11T17:21:46.992Z,-4.30
2022-12-11T17:24:20.874Z,-4.40
2022-12-11T17:26:48.203Z,-4.40
2022-12-11T17:29:15.387Z,-4.50
2022-12-11T17:31:42.851Z,-4.50
2022-12-11T17:34:10.214Z,-4.50
2022-12-11T17:36:41.583Z,-4.40
2022-12-11T17:39:11.255Z,-4.50
2022-12-11T17:41:39.266Z,-4.50
2022-12-11T17:44:10.206Z,-4.40
2022-12-11T17:46:38.986Z,-4.50
2022-12-11T17:49:10.908Z,-4.50
2022-12-11T17:51:38.289Z,-4.60
2022-12-11T17:54:06.230Z,-4.50
2022-12-11T17:56:40.906Z,-4.40
2022-12-11T17:59:13.507Z,-4.50
2022-12-11T18:01:40.899Z,-4.60
2022-12-11T18:04:15.925Z,-4.50
2022-12-11T18:06:53.847Z,-4.60
2022-12-11T18:09:21.133Z,-4.60
2022-12-11T18:11:48.617Z,-4.70
2022-12-11T18:14:17.657Z,-4.60
2022-12-11T18:16:45.075Z,-4.70
2022-12-11T18:19:15.288Z,-4.70
2022-12-11T18:21:50.498Z,-4.70
2022-12-11T18:24:21.573Z,-4.80
2022-12-11T18:26:49.394Z,-4.80
2022-12-11T18:29:17.738Z,-4.80
2022-12-11T18:31:47.381Z,-4.80
2022-12-11T18:34:17.799Z,-4.80
2022-12-11T18:36:50.583Z,-4.80
2022-12-11T18:39:19.043Z,-4.80
2022-12-11T18:41:58.411Z,-4.80
2022-12-11T18:44:33.819Z,-4.90
2022-12-11T18:47:02.715Z,-4.90
2022-12-11T18:49:30.603Z,-4.90
2022-12-11T18:51:58.136Z,-4.80
2022-12-11T18:54:25.629Z,-4.90
2022-12-11T18:56:53.199Z,-4.80
2022-12-11T18:59:20.582Z,-4.90
2022-12-11T19:01:55.467Z,-4.80
2022-12-11T19:04:41.799Z,-4.80
2022-12-11T19:07:21.101Z,-4.90
2022-12-11T19:09:53.003Z,-4.90
2022-12-11T19:12:27.737Z,-4.80
2022-12-11T19:15:00.977Z,-4.80
2022-12-11T19:17:28.827Z,-4.80
2022-12-11T19:19:56.283Z,-4.80
2022-12-11T19:22:23.724Z,-4.70
2022-12-11T19:24:51.181Z,-4.80
2022-12-11T19:27:20.090Z,-4.80
2022-12-11T19:29:47.724Z,-4.70
2022-12-11T19:32:22.408Z,-4.80
2022-12-11T19:34:58.511Z,-4.70
2022-12-11T19:37:26.097Z,-4.70
2022-12-11T19:39:58.114Z,-4.70
2022-12-11T19:42:26.945Z,-4.80
2022-12-11T19:44:59.844Z,-4.70
2022-12-11T19:47:29.333Z,-4.70
2022-12-11T19:49:56.860Z,-4.70
2022-12-11T19:52:26.021Z,-4.70
2022-12-11T19:55:00.796Z,-4.70
2022-12-11T19:57:28.740Z,-4.70
2022-12-11T19:59:57.473Z,-4.70
2022-12-11T20:02:34.066Z,-4.80
2022-12-11T20:05:03.007Z,-4.70
2022-12-11T20:07:40.112Z,-4.70
2022-12-11T20:13:01.770Z,-4.70
2022-12-11T20:15:34.041Z,-4.70
2022-12-11T20:18:02.594Z,-4.60
2022-12-11T20:20:30.556Z,-4.70
2022-12-11T20:22:59.880Z,-4.70
2022-12-11T20:25:33.173Z,-4.60
2022-12-11T20:28:00.535Z,-4.60
2022-12-11T20:30:30.556Z,-4.70
2022-12-11T20:33:11.307Z,-4.70
2022-12-11T20:35:42.741Z,-4.60
2022-12-11T20:38:19.443Z,-4.70
2022-12-11T20:40:59.909Z,-4.60
2022-12-11T20:43:37.015Z,-4.60
2022-12-11T20:46:07.275Z,-4.60
2022-12-11T20:48:43.708Z,-4.40
2022-12-11T20:51:13.427Z,-4.60
2022-12-11T20:53:43.955Z,-4.60
2022-12-11T20:56:13.949Z,-4.50
2022-12-11T20:58:44.018Z,-4.50
2022-12-11T21:01:17.118Z,-4.40
2022-12-11T21:03:47.897Z,-4.60
2022-12-11T21:06:33.940Z,-4.50
2022-12-11T21:09:18.647Z,-4.50
2022-12-11T21:11:51.710Z,-4.50
2022-12-11T21:14:25.110Z,-4.50
2022-12-11T21:16:52.751Z,-4.40
2022-12-11T21:19:26.543Z,-4.50
2022-12-11T21:22:05.490Z,-4.40
2022-12-11T21:24:46.221Z,-4.30
2022-12-11T21:27:35.992Z,-4.40
2022-12-11T21:30:13.730Z,-4.40
2022-12-11T21:32:47.337Z,-4.40
2022-12-11T21:35:14.765Z,-4.30
2022-12-11T21:37:50.307Z,-4.40
2022-12-11T21:40:17.674Z,-4.40
2022-12-11T21:42:48.287Z,-4.30
2022-12-11T21:45:59.224Z,-4.30
2022-12-11T21:48:14.645Z,-4.30
2022-12-11T21:50:43.061Z,-4.20
2022-12-11T21:53:10.168Z,-4.30
2022-12-11T21:55:44.334Z,-4.20
2022-12-11T21:58:12.167Z,-4.10
2022-12-11T22:00:40.285Z,-4.20
2022-12-11T22:03:17.050Z,-4.20
2022-12-11T22:05:45.392Z,-4.20
2022-12-11T22:08:15.968Z,-4.10
2022-12-11T22:10:48.178Z,-4.20
2022-12-11T22:13:19.027Z,-4.10
2022-12-11T22:15:46.700Z,-4.20
2022-12-11T22:18:19.843Z,-4.20
2022-12-11T22:21:16.015Z,-4.10
2022-12-11T22:23:50.700Z,-4.10
2022-12-11T22:26:23.022Z,-4.10
2022-12-11T22:28:50.688Z,-4.10
2022-12-11T22:31:20.781Z,-4.10
2022-12-11T22:33:50.742Z,-4.10
2022-12-11T22:36:21.587Z,-4.00
2022-12-11T22:38:49.581Z,-4.00
2022-12-11T22:41:32.779Z,-4.10
2022-12-11T22:44:03.602Z,-4.00
2022-12-11T22:46:33.148Z,-3.90
2022-12-11T22:51:43.637Z,-4.00
2022-12-11T22:54:12.376Z,-3.90
2022-12-11T22:56:39.482Z,-4.10
2022-12-11T22:59:07.691Z,-4.00
2022-12-11T23:01:35.305Z,-4.00
2022-12-11T23:04:06.309Z,-4.10
2022-12-11T23:06:35.406Z,-4.00
2022-12-11T23:09:06.247Z,-4.10
2022-12-11T23:11:37.139Z,-4.10
2022-12-11T23:14:09.546Z,-4.00
2022-12-11T23:16:40.170Z,-4.10
2022-12-11T23:19:11.348Z,-4.10
2022-12-11T23:21:39.974Z,-4.10
2022-12-11T23:24:10.885Z,-4.00
2022-12-11T23:26:41.110Z,-4.00
2022-12-11T23:29:09.160Z,-3.90
2022-12-11T23:31:40.034Z,-3.90
2022-12-11T23:34:16.735Z,-3.70
2022-12-11T23:36:47.883Z,-3.80
2022-12-11T23:39:15.397Z,-3.80
2022-12-11T23:41:42.981Z,-3.80
2022-12-11T23:44:11.923Z,-3.70
2022-12-11T23:46:45.184Z,-3.80
2022-12-11T23:49:15.558Z,-3.80
2022-12-11T23:51:42.721Z,-3.80
2022-12-11T23:54:13.018Z,-3.80
2022-12-11T23:56:40.726Z,-3.80
2022-12-11T23:59:11.792Z,-3.80
